Time,TemperatureF,DewpointF,PressureIn,WindDirection,WindDirectionDegrees,WindSpeedMPH,WindSpeedGustMPH,Humidity,HourlyPrecipIn,Conditions,Clouds,dailyrainin,SoftwareType,DateUTC
2013-04-21 00:12:00,42.7,23.0,30.09,WNW,302,0.0,-999.0,45,-99.99,,,0.00,weatherlink.com 1.10,2013-04-21 04:12:00,
2013-04-21 00:27:00,42.3,22.0,30.10,NE,55,7.0,-999.0,44,-99.99,,,0.00,weatherlink.com 1.10,2013-04-21 04:27:00,
2013-04-21 00:42:00,41.6,22.0,30.11,WNW,296,6.0,-999.0,45,-99.99,,,0.00,weatherlink.com 1.10,2013-04-21 04:42:00,
2013-04-21 00:57:00,41.0,22.0,30.12,West,269,1.0,-999.0,47,-99.99,,,0.00,weatherlink.com 1.10,2013-04-21 04:57:00,
2013-04-21 01:12:00,40.5,22.0,30.12,West,273,0.0,-999.0,47,-99.99,,,0.00,weatherlink.com 1.10,2013-04-21 05:12:00,
2013-04-21 01:27:00,40.0,22.0,30.13,WNW,303,0.0,-999.0,48,-99.99,,,0.00,weatherlink.com 1.10,2013-04-21 05:27:00,
2013-04-21 01:42:00,39.6,22.0,30.14,West,273,0.0,-999.0,49,-99.99,,,0.00,weatherlink.com 1.10,2013-04-21 05:42:00,
2013-04-21 01:57:00,38.8,22.0,30.14,North,5,1.0,-999.0,51,-99.99,,,0.00,weatherlink.com 1.10,2013-04-21 05:57:00,
2013-04-21 02:12:00,38.3,22.0,30.15,NE,35,0.0,-999.0,52,-99.99,,,0.00,weatherlink.com 1.10,2013-04-21 06:12:00,
2013-04-21 02:27:00,37.7,21.0,30.16,North,355,0.0,-999.0,52,-99.99,,,0.00,weatherlink.com 1.10,2013-04-21 06:27:00,
2013-04-21 02:42:00,37.4,22.0,30.17,NW,321,0.0,-999.0,53,-99.99,,,0.00,weatherlink.com 1.10,2013-04-21 06:42:00,
2013-04-21 02:57:00,36.8,22.0,30.17,WNW,284,0.0,-999.0,55,-99.99,,,0.00,weatherlink.com 1.10,2013-04-21 06:57:00,
2013-04-21 03:12:00,36.5,22.0,30.18,NW,312,0.0,-999.0,55,-99.99,,,0.00,weatherlink.com 1.10,2013-04-21 07:12:00,
2013-04-21 03:27:00,36.6,21.0,30.19,WNW,284,0.0,-999.0,53,-99.99,,,0.00,weatherlink.com 1.10,2013-04-21 07:27:00,
2013-04-21 03:42:00,36.3,20.0,30.20,NW,313,0.0,-999.0,53,-99.99,,,0.00,weatherlink.com 1.10,2013-04-21 07:42:00,
2013-04-21 03:57:00,36.0,21.0,30.20,NW,308,0.0,-999.0,54,-99.99,,,0.00,weatherlink.com 1.10,2013-04-21 07:57:00,
2013-04-21 04:12:00,35.5,21.0,30.21,North,5,0.0,-999.0,56,-99.99,,,0.00,weatherlink.com 1.10,2013-04-21 08:12:00,
2013-04-21 04:27:00,35.3,21.0,30.22,NNE,17,0.0,-999.0,56,-99.99,,,0.00,weatherlink.com 1.10,2013-04-21 08:27:00,
2013-04-21 04:42:00,35.0,21.0,30.22,WNW,289,0.0,-999.0,57,-99.99,,,0.00,weatherlink.com 1.10,2013-04-21 08:42:00,
2013-04-21 04:57:00,34.7,21.0,30.23,NW,318,0.0,-999.0,57,-99.99,,,0.00,weatherlink.com 1.10,2013-04-21 08:57:00,
2013-04-21 05:12:00,34.1,21.0,30.23,NNW,331,0.0,-999.0,58,-99.99,,,0.00,weatherlink.com 1.10,2013-04-21 09:12:00,
2013-04-21 05:27:00,33.7,21.0,30.25,NNW,331,0.0,-999.0,59,-99.99,,,0.00,weatherlink.com 1.10,2013-04-21 09:27:00,
2013-04-21 05:42:00,33.2,21.0,30.26,NW,309,0.0,-999.0,60,-99.99,,,0.00,weatherlink.com 1.10,2013-04-21 09:42:00,
2013-04-21 05:57:00,32.8,21.0,30.27,NW,309,0.0,-999.0,62,-99.99,,,0.00,weatherlink.com 1.10,2013-04-21 09:57:00,
2013-04-21 06:12:00,32.7,21.0,30.29,West,273,0.0,-999.0,62,-99.99,,,0.00,weatherlink.com 1.10,2013-04-21 10:12:00,
2013-04-21 06:27:00,33.4,22.0,30.30,West,273,0.0,-999.0,63,-99.99,,,0.00,weatherlink.com 1.10,2013-04-21 10:27:00,
2013-04-21 06:43:00,34.5,22.0,30.31,West,276,0.0,-999.0,61,-99.99,,,0.00,weatherlink.com 1.10,2013-04-21 10:43:00,
2013-04-21 06:58:00,36.1,23.0,30.32,NE,41,1.0,-999.0,59,-99.99,,,0.00,weatherlink.com 1.10,2013-04-21 10:58:00,
2013-04-21 07:13:00,37.3,22.0,30.33,North,5,0.0,-999.0,54,-99.99,,,0.00,weatherlink.com 1.10,2013-04-21 11:13:00,
2013-04-21 07:28:00,38.3,22.0,30.34,NW,306,0.0,-999.0,52,-99.99,,,0.00,weatherlink.com 1.10,2013-04-21 11:28:00,
2013-04-21 07:43:00,39.1,21.0,30.34,NNE,21,0.0,-999.0,49,-99.99,,,0.00,weatherlink.com 1.10,2013-04-21 11:43:00,
2013-04-21 07:58:00,39.7,22.0,30.35,ENE,72,0.0,-999.0,49,-99.99,,,0.00,weatherlink.com 1.10,2013-04-21 11:58:00,
2013-04-21 08:13:00,40.4,22.0,30.36,ENE,61,4.0,-999.0,48,-99.99,,,0.00,weatherlink.com 1.10,2013-04-21 12:13:00,
2013-04-21 08:28:00,41.3,22.0,30.36,NNE,22,0.0,-999.0,47,-99.99,,,0.00,weatherlink.com 1.10,2013-04-21 12:28:00,
2013-04-21 08:43:00,42.0,23.0,30.37,NNW,332,0.0,-999.0,47,-99.99,,,0.00,weatherlink.com 1.10,2013-04-21 12:43:00,
2013-04-21 08:58:00,42.1,24.0,30.37,NNE,13,3.0,-999.0,48,-99.99,,,0.00,weatherlink.com 1.10,2013-04-21 12:58:00,
2013-04-21 09:13:00,42.4,23.0,30.38,NE,41,3.0,-999.0,47,-99.99,,,0.00,weatherlink.com 1.10,2013-04-21 13:13:00,
2013-04-21 09:28:00,42.5,21.0,30.38,WNW,302,3.0,-999.0,42,-99.99,,,0.00,weatherlink.com 1.10,2013-04-21 13:28:00,
2013-04-21 09:43:00,42.8,22.0,30.39,NNW,347,4.0,-999.0,44,-99.99,,,0.00,weatherlink.com 1.10,2013-04-21 13:43:00,
2013-04-21 09:58:00,43.4,22.0,30.39,NNE,30,2.0,-999.0,43,-99.99,,,0.00,weatherlink.com 1.10,2013-04-21 13:58:00,
2013-04-21 10:13:00,43.4,23.0,30.39,North,355,0.0,-999.0,44,-99.99,,,0.00,weatherlink.com 1.10,2013-04-21 14:13:00,
2013-04-21 10:28:00,43.8,22.0,30.40,NE,52,1.0,-999.0,42,-99.99,,,0.00,weatherlink.com 1.10,2013-04-21 14:28:00,
2013-04-21 10:43:00,44.8,23.0,30.40,NE,38,1.0,-999.0,42,-99.99,,,0.00,weatherlink.com 1.10,2013-04-21 14:43:00,
2013-04-21 10:58:00,45.3,23.0,30.40,NNE,28,0.0,-999.0,41,-99.99,,,0.00,weatherlink.com 1.10,2013-04-21 14:58:00,
2013-04-21 11:13:00,46.2,24.0,30.40,ENE,57,4.0,-999.0,41,-99.99,,,0.00,weatherlink.com 1.10,2013-04-21 15:13:00,
2013-04-21 11:28:00,45.9,21.0,30.41,North,5,3.0,-999.0,37,-99.99,,,0.00,weatherlink.com 1.10,2013-04-21 15:28:00,
2013-04-21 11:43:00,46.9,25.0,30.41,NNE,13,10.0,-999.0,43,-99.99,,,0.00,weatherlink.com 1.10,2013-04-21 15:43:00,
2013-04-21 11:58:00,47.3,23.0,30.41,NE,38,0.0,-999.0,38,-99.99,,,0.00,weatherlink.com 1.10,2013-04-21 15:58:00,
2013-04-21 12:13:00,47.7,23.0,30.42,NNE,24,3.0,-999.0,38,-99.99,,,0.00,weatherlink.com 1.10,2013-04-21 16:13:00,
2013-04-21 12:28:00,47.8,22.0,30.42,WNW,295,1.0,-999.0,36,-99.99,,,0.00,weatherlink.com 1.10,2013-04-21 16:28:00,
2013-04-21 12:43:00,48.8,25.0,30.42,WNW,292,2.0,-999.0,39,-99.99,,,0.00,weatherlink.com 1.10,2013-04-21 16:43:00,
2013-04-21 12:58:00,48.5,23.0,30.42,North,355,1.0,-999.0,37,-99.99,,,0.00,weatherlink.com 1.10,2013-04-21 16:58:00,
2013-04-21 13:13:00,49.9,21.0,30.41,WNW,286,1.0,-999.0,32,-99.99,,,0.00,weatherlink.com 1.10,2013-04-21 17:13:00,
2013-04-21 13:28:00,50.0,24.0,30.41,North,5,0.0,-999.0,37,-99.99,,,0.00,weatherlink.com 1.10,2013-04-21 17:28:00,
2013-04-21 13:43:00,50.5,23.0,30.41,WNW,302,3.0,-999.0,34,-99.99,,,0.00,weatherlink.com 1.10,2013-04-21 17:43:00,
2013-04-21 13:58:00,50.3,23.0,30.41,NNE,25,5.0,-999.0,35,-99.99,,,0.00,weatherlink.com 1.10,2013-04-21 17:58:00,
2013-04-21 14:13:00,50.7,22.0,30.41,ENE,63,7.0,-999.0,33,-99.99,,,0.00,weatherlink.com 1.10,2013-04-21 18:13:00,
2013-04-21 14:28:00,50.5,24.0,30.42,NNE,28,0.0,-999.0,35,-99.99,,,0.00,weatherlink.com 1.10,2013-04-21 18:28:00,
2013-04-21 14:43:00,51.3,23.0,30.42,WNW,284,0.0,-999.0,33,-99.99,,,0.00,weatherlink.com 1.10,2013-04-21 18:43:00,
2013-04-21 14:58:00,51.2,27.0,30.42,ESE,106,0.0,-999.0,39,-99.99,,,0.00,weatherlink.com 1.10,2013-04-21 18:58:00,
2013-04-21 15:13:00,48.8,28.0,30.42,East,90,8.0,-999.0,45,-99.99,,,0.00,weatherlink.com 1.10,2013-04-21 19:13:00,
2013-04-21 15:28:00,47.8,29.0,30.43,East,93,11.0,-999.0,49,-99.99,,,0.00,weatherlink.com 1.10,2013-04-21 19:28:00,
2013-04-21 15:43:00,47.1,28.0,30.43,SE,129,2.0,-999.0,47,-99.99,,,0.00,weatherlink.com 1.10,2013-04-21 19:43:00,
2013-04-21 15:58:00,46.9,28.0,30.43,ENE,71,3.0,-999.0,49,-99.99,,,0.00,weatherlink.com 1.10,2013-04-21 19:58:00,
2013-04-21 16:13:00,46.8,27.0,30.43,NNE,31,2.0,-999.0,47,-99.99,,,0.00,weatherlink.com 1.10,2013-04-21 20:13:00,
2013-04-21 16:28:00,47.0,29.0,30.43,East,93,0.0,-999.0,49,-99.99,,,0.00,weatherlink.com 1.10,2013-04-21 20:28:00,
2013-04-21 16:43:00,46.3,27.0,30.44,NW,310,0.0,-999.0,47,-99.99,,,0.00,weatherlink.com 1.10,2013-04-21 20:43:00,
2013-04-21 16:58:00,46.5,29.0,30.44,East,95,7.0,-999.0,51,-99.99,,,0.00,weatherlink.com 1.10,2013-04-21 20:58:00,
2013-04-21 17:13:00,46.0,28.0,30.45,SSW,213,0.0,-999.0,50,-99.99,,,0.00,weatherlink.com 1.10,2013-04-21 21:13:00,
2013-04-21 17:28:00,45.7,28.0,30.45,NE,49,3.0,-999.0,50,-99.99,,,0.00,weatherlink.com 1.10,2013-04-21 21:28:00,
2013-04-21 17:43:00,45.6,29.0,30.45,East,94,2.0,-999.0,53,-99.99,,,0.00,weatherlink.com 1.10,2013-04-21 21:43:00,
2013-04-21 17:58:00,44.8,29.0,30.46,WSW,246,1.0,-999.0,54,-99.99,,,0.00,weatherlink.com 1.10,2013-04-21 21:58:00,
2013-04-21 18:13:00,44.3,29.0,30.46,NNE,22,0.0,-999.0,56,-99.99,,,0.00,weatherlink.com 1.10,2013-04-21 22:13:00,
2013-04-21 18:28:00,43.9,29.0,30.47,SW,220,1.0,-999.0,56,-99.99,,,0.00,weatherlink.com 1.10,2013-04-21 22:28:00,
2013-04-21 18:43:00,43.4,29.0,30.47,South,185,2.0,-999.0,57,-99.99,,,0.00,weatherlink.com 1.10,2013-04-21 22:43:00,
2013-04-21 18:58:00,43.0,27.0,30.48,SE,146,0.0,-999.0,54,-99.99,,,0.00,weatherlink.com 1.10,2013-04-21 22:58:00,
2013-04-21 19:13:00,42.5,28.0,30.48,NW,323,0.0,-999.0,56,-99.99,,,0.00,weatherlink.com 1.10,2013-04-21 23:13:00,
2013-04-21 19:28:00,41.9,27.0,30.49,SSE,161,0.0,-999.0,57,-99.99,,,0.00,weatherlink.com 1.10,2013-04-21 23:28:00,
2013-04-21 19:43:00,41.2,28.0,30.50,SSE,162,0.0,-999.0,60,-99.99,,,0.00,weatherlink.com 1.10,2013-04-21 23:43:00,
2013-04-21 19:58:00,40.5,28.0,30.50,West,262,0.0,-999.0,61,-99.99,,,0.00,weatherlink.com 1.10,2013-04-21 23:58:00,
2013-04-21 20:13:00,39.9,28.0,30.51,West,261,0.0,-999.0,63,-99.99,,,0.00,weatherlink.com 1.10,2013-04-22 00:13:00,
2013-04-21 20:28:00,39.4,28.0,30.52,West,260,0.0,-999.0,64,-99.99,,,0.00,weatherlink.com 1.10,2013-04-22 00:28:00,
2013-04-21 20:43:00,38.7,29.0,30.52,West,260,0.0,-999.0,67,-99.99,,,0.00,weatherlink.com 1.10,2013-04-22 00:43:00,
2013-04-21 20:58:00,38.2,28.0,30.53,West,260,0.0,-999.0,68,-99.99,,,0.00,weatherlink.com 1.10,2013-04-22 00:58:00,
2013-04-21 21:13:00,37.7,29.0,30.54,West,260,0.0,-999.0,70,-99.99,,,0.00,weatherlink.com 1.10,2013-04-22 01:13:00,
2013-04-21 21:28:00,37.1,29.0,30.54,West,260,0.0,-999.0,72,-99.99,,,0.00,weatherlink.com 1.10,2013-04-22 01:28:00,
2013-04-21 21:43:00,36.4,29.0,30.54,West,260,0.0,-999.0,73,-99.99,,,0.00,weatherlink.com 1.10,2013-04-22 01:43:00,
2013-04-21 21:58:00,36.4,29.0,30.54,West,260,0.0,-999.0,73,-99.99,,,0.00,weatherlink.com 1.10,2013-04-22 01:58:00,
2013-04-21 22:13:00,35.6,28.0,30.55,West,260,0.0,-999.0,75,-99.99,,,0.00,weatherlink.com 1.10,2013-04-22 02:13:00,
2013-04-21 22:28:00,34.8,28.0,30.55,West,260,0.0,-999.0,76,-99.99,,,0.00,weatherlink.com 1.10,2013-04-22 02:28:00,
2013-04-21 22:43:00,33.8,28.0,30.55,West,260,0.0,-999.0,79,-99.99,,,0.00,weatherlink.com 1.10,2013-04-22 02:43:00,
2013-04-21 22:58:00,33.1,28.0,30.56,West,260,0.0,-999.0,80,-99.99,,,0.00,weatherlink.com 1.10,2013-04-22 02:58:00,
2013-04-21 23:13:00,32.6,28.0,30.57,West,260,0.0,-999.0,82,-99.99,,,0.00,weatherlink.com 1.10,2013-04-22 03:13:00,
2013-04-21 23:28:00,32.5,28.0,30.56,West,260,0.0,-999.0,82,-99.99,,,0.00,weatherlink.com 1.10,2013-04-22 03:28:00,
2013-04-21 23:43:00,32.7,28.0,30.57,West,260,0.0,-999.0,83,-99.99,,,0.00,weatherlink.com 1.10,2013-04-22 03:43:00,
2013-04-21 23:58:00,32.4,28.0,30.57,West,260,0.0,-999.0,83,-99.99,,,0.00,weatherlink.com 1.10,2013-04-22 03:58:00,